createdAt,value
2019-06-07T00:01:31.368Z,8.48
2019-06-07T00:03:58.917Z,8.25
2019-06-07T00:06:27.297Z,8.55
2019-06-07T00:08:54.816Z,7.85
2019-06-07T00:11:23.247Z,7.80
2019-06-07T00:13:52.839Z,7.90
2019-06-07T00:16:23.283Z,8.20
2019-06-07T00:18:51.576Z,8.30
2019-06-07T00:21:20.479Z,8.10
2019-06-07T00:23:47.938Z,8.83
2019-06-07T00:26:18.178Z,8.90
2019-06-07T00:28:48.950Z,8.10
2019-06-07T00:31:18.198Z,8.38
2019-06-07T00:33:45.865Z,8.48
2019-06-07T00:36:14.659Z,8.25
2019-06-07T00:38:43.916Z,8.10
2019-06-07T00:41:12.539Z,8.43
2019-06-07T00:43:40.098Z,8.33
2019-06-07T00:46:07.925Z,8.00
2019-06-07T00:48:35.426Z,8.53
2019-06-07T00:51:02.645Z,8.00
2019-06-07T00:53:32.571Z,8.78
2019-06-07T00:55:59.923Z,8.60
2019-06-07T00:58:29.405Z,8.85
2019-06-07T01:00:56.655Z,9.35
2019-06-07T01:03:25.990Z,8.85
2019-06-07T01:05:54.453Z,9.00
2019-06-07T01:08:28.155Z,9.48
2019-06-07T01:10:53.963Z,9.40
2019-06-07T01:13:24.110Z,9.47
2019-06-07T01:15:50.774Z,9.20
2019-06-07T01:18:40.382Z,9.10
2019-06-07T01:20:47.583Z,9.13
2019-06-07T01:23:57.866Z,8.85
2019-06-07T01:25:44.709Z,9.23
2019-06-07T01:28:12.448Z,8.50
2019-06-07T01:30:40.347Z,8.48
2019-06-07T01:33:07.838Z,9.15
2019-06-07T01:35:35.146Z,9.25
2019-06-07T01:38:02.378Z,9.25
2019-06-07T01:40:32.765Z,8.70
2019-06-07T01:42:59.712Z,8.73
2019-06-07T01:45:30.897Z,9.18
2019-06-07T01:47:56.563Z,8.98
2019-06-07T01:50:26.875Z,8.93
2019-06-07T01:52:53.844Z,8.45
2019-06-07T01:55:23.635Z,8.05
2019-06-07T01:57:50.693Z,8.85
2019-06-07T02:00:21.628Z,8.68
2019-06-07T02:02:48.868Z,8.78
2019-06-07T02:05:19.121Z,8.65
2019-06-07T02:07:46.059Z,8.65
2019-06-07T02:10:14.235Z,9.50
2019-06-07T02:12:43.448Z,9.05
2019-06-07T02:15:11.995Z,8.98
2019-06-07T02:17:39.526Z,9.17
2019-06-07T02:20:07.355Z,9.40
2019-06-07T02:22:34.606Z,9.30
2019-06-07T02:25:35.222Z,8.98
2019-06-07T02:27:32.976Z,9.25
2019-06-07T02:30:00.420Z,9.05
2019-06-07T02:32:31.684Z,8.45
2019-06-07T02:34:57.287Z,9.20
2019-06-07T02:37:27.635Z,9.05
2019-06-07T02:39:54.767Z,9.33
2019-06-07T02:42:26.115Z,9.00
2019-06-07T02:44:51.597Z,8.78
2019-06-07T02:47:18.961Z,9.73
2019-06-07T02:49:46.029Z,9.93
2019-06-07T02:52:13.272Z,9.63
2019-06-07T02:54:41.961Z,9.35
2019-06-07T02:57:09.440Z,8.78
2019-06-07T03:00:03.761Z,9.98
2019-06-07T03:02:06.118Z,9.95
2019-06-07T03:04:40.558Z,9.35
2019-06-07T03:07:03.159Z,9.93
2019-06-07T03:09:34.406Z,9.20
2019-06-07T03:12:02.834Z,10.25
2019-06-07T03:14:35.133Z,9.80
2019-06-07T03:17:22.188Z,9.85
2019-06-07T03:19:53.160Z,9.25
2019-06-07T03:22:20.537Z,10.13
2019-06-07T03:24:49.953Z,9.65
2019-06-07T03:27:41.312Z,10.07
2019-06-07T03:29:47.442Z,10.15
2019-06-07T03:32:15.174Z,10.45
2019-06-07T03:34:43.828Z,10.48
2019-06-07T03:37:11.478Z,9.33
2019-06-07T03:39:41.012Z,9.75
2019-06-07T03:42:08.579Z,9.78
2019-06-07T03:44:40.654Z,10.10
2019-06-07T03:47:05.702Z,10.30
2019-06-07T03:49:37.511Z,10.30
2019-06-07T03:52:02.402Z,10.28
2019-06-07T03:54:32.106Z,10.60
2019-06-07T03:56:59.547Z,10.98
2019-06-07T03:59:28.426Z,10.98
2019-06-07T04:01:55.954Z,10.50
2019-06-07T04:04:23.213Z,10.50
2019-06-07T04:06:50.451Z,10.50
2019-06-07T04:09:17.657Z,10.63
2019-06-07T04:11:45.477Z,11.08
2019-06-07T04:14:12.840Z,10.68
2019-06-07T04:16:44.107Z,10.78
2019-06-07T04:19:09.596Z,10.85
2019-06-07T04:21:42.356Z,10.30
2019-06-07T04:24:07.723Z,10.35
2019-06-07T04:26:36.835Z,10.43
2019-06-07T04:31:34.489Z,10.85
2019-06-07T04:34:02.897Z,11.12
2019-06-07T04:36:45.946Z,10.85
2019-06-07T04:39:01.081Z,10.80
2019-06-07T04:41:31.018Z,10.98
2019-06-07T04:44:00.680Z,11.25
2019-06-07T04:46:31.554Z,10.93
2019-06-07T04:49:02.792Z,11.05
2019-06-07T04:51:31.893Z,11.12
2019-06-07T04:54:02.422Z,11.78
2019-06-07T04:56:32.854Z,11.38
2019-06-07T04:59:00.422Z,11.70
2019-06-07T05:01:30.634Z,10.48
2019-06-07T05:03:57.177Z,11.12
2019-06-07T05:06:24.856Z,11.25
2019-06-07T05:08:52.238Z,12.55
2019-06-07T05:11:19.859Z,11.80
2019-06-07T05:13:47.658Z,11.88
2019-06-07T05:16:15.005Z,12.43
2019-06-07T05:18:43.311Z,11.70
2019-06-07T05:21:11.028Z,11.83
2019-06-07T05:26:07.502Z,12.80
2019-06-07T05:28:37.862Z,12.05
2019-06-07T05:31:06.183Z,12.73
2019-06-07T05:33:36.610Z,11.28
2019-06-07T05:36:03.695Z,12.28
2019-06-07T05:38:31.121Z,12.05
2019-06-07T05:40:58.514Z,12.35
2019-06-07T05:43:27.534Z,12.03
2019-06-07T05:45:54.822Z,12.05
2019-06-07T05:48:22.379Z,11.85
2019-06-07T05:50:56.600Z,12.37
2019-06-07T05:53:19.205Z,9.10
2019-06-07T05:55:47.703Z,10.75
2019-06-07T05:58:16.855Z,9.93
2019-06-07T06:00:47.180Z,10.35
2019-06-07T06:03:13.558Z,9.83
2019-06-07T06:05:46.189Z,9.58
2019-06-07T06:08:09.945Z,9.93
2019-06-07T06:10:39.692Z,10.88
2019-06-07T06:13:06.576Z,9.90
2019-06-07T06:15:45.297Z,9.88
2019-06-07T06:18:03.420Z,9.28
2019-06-07T06:20:34.509Z,10.93
2019-06-07T06:23:00.042Z,10.32
2019-06-07T06:25:33.548Z,9.33
2019-06-07T06:28:10.499Z,11.00
2019-06-07T06:30:26.410Z,10.38
2019-06-07T06:32:58.147Z,10.80
2019-06-07T06:35:22.715Z,10.50
2019-06-07T06:37:53.353Z,10.08
2019-06-07T06:40:19.950Z,10.40
2019-06-07T06:42:49.094Z,10.90
2019-06-07T06:45:16.863Z,10.55
2019-06-07T06:47:47.646Z,10.25
2019-06-07T06:50:13.546Z,11.33
2019-06-07T06:52:44.058Z,10.20
2019-06-07T06:55:10.721Z,10.23
2019-06-07T06:57:41.465Z,11.83
2019-06-07T07:00:09.963Z,10.90
2019-06-07T07:03:26.916Z,11.22
2019-06-07T07:05:07.514Z,9.65
2019-06-07T07:07:35.308Z,11.28
2019-06-07T07:10:04.018Z,10.28
2019-06-07T07:12:31.688Z,10.48
2019-06-07T07:14:59.313Z,11.38
2019-06-07T07:17:47.940Z,9.63
2019-06-07T07:19:56.830Z,9.58
2019-06-07T07:22:24.701Z,12.05
2019-06-07T07:24:54.789Z,9.58
2019-06-07T07:27:21.951Z,10.10
2019-06-07T07:29:54.613Z,11.18
2019-06-07T07:32:19.074Z,9.83
2019-06-07T07:34:49.501Z,10.28
2019-06-07T07:37:16.480Z,10.30
2019-06-07T07:39:45.254Z,10.28
2019-06-07T07:42:21.179Z,10.55
2019-06-07T07:44:43.304Z,11.38
2019-06-07T07:47:11.941Z,10.48
2019-06-07T07:49:39.136Z,10.78
2019-06-07T07:52:07.025Z,12.00
2019-06-07T07:54:34.527Z,11.25
2019-06-07T07:57:01.936Z,11.73
2019-06-07T07:59:41.753Z,11.65
2019-06-07T08:02:00.284Z,11.60
2019-06-07T08:05:12.068Z,11.53
2019-06-07T08:06:57.167Z,11.75
2019-06-07T08:09:25.134Z,11.18
2019-06-07T08:11:59.600Z,11.95
2019-06-07T08:14:21.507Z,11.93
2019-06-07T08:16:49.361Z,11.75
2019-06-07T08:19:17.768Z,11.25
2019-06-07T08:21:47.549Z,9.80
2019-06-07T08:24:14.251Z,12.10
2019-06-07T08:26:41.470Z,11.38
2019-06-07T08:29:09.160Z,11.18
2019-06-07T08:31:36.496Z,11.38
2019-06-07T08:34:04.216Z,11.00
2019-06-07T08:36:41.758Z,10.78
2019-06-07T08:39:07.413Z,12.18
2019-06-07T08:41:31.250Z,10.20
2019-06-07T08:44:02.589Z,10.93
2019-06-07T08:46:28.226Z,11.45
2019-06-07T08:48:57.122Z,11.20
2019-06-07T08:51:24.991Z,11.18
2019-06-07T08:54:09.611Z,11.33
2019-06-07T08:56:21.533Z,11.33
2019-06-07T08:58:48.724Z,11.50
2019-06-07T09:01:16.064Z,13.18
2019-06-07T09:03:43.491Z,11.03
2019-06-07T09:06:53.714Z,12.23
2019-06-07T09:08:41.135Z,9.98
2019-06-07T09:11:11.147Z,12.10
2019-06-07T09:13:37.908Z,10.70
2019-06-07T09:16:08.658Z,11.85
2019-06-07T09:18:43.221Z,11.33
2019-06-07T09:21:09.076Z,10.58
2019-06-07T09:23:33.861Z,11.83
2019-06-07T09:26:10.553Z,11.70
2019-06-07T09:28:31.835Z,10.80
2019-06-07T09:31:02.894Z,11.20
2019-06-07T09:33:29.018Z,11.22
2019-06-07T09:35:58.675Z,10.23
2019-06-07T09:38:26.975Z,10.50
2019-06-07T09:40:54.670Z,11.65
2019-06-07T09:45:51.625Z,10.65
2019-06-07T09:49:01.294Z,12.53
2019-06-07T09:50:48.235Z,11.30
2019-06-07T09:53:22.409Z,10.75
2019-06-07T09:55:44.686Z,11.45
2019-06-07T10:00:42.952Z,11.33
2019-06-07T10:03:20.742Z,10.20
2019-06-07T10:05:39.957Z,10.30
2019-06-07T10:08:38.022Z,10.18
2019-06-07T10:10:36.899Z,11.65
2019-06-07T10:13:06.292Z,10.08
2019-06-07T10:15:34.167Z,10.23
2019-06-07T10:18:02.709Z,8.85
2019-06-07T10:20:30.515Z,9.90
2019-06-07T10:22:59.553Z,10.20
2019-06-07T10:25:27.160Z,9.15
2019-06-07T10:27:54.770Z,9.58
2019-06-07T10:30:22.292Z,9.78
2019-06-07T10:32:52.174Z,9.70
2019-06-07T10:35:20.023Z,9.23
2019-06-07T10:37:47.395Z,10.82
2019-06-07T10:40:15.243Z,10.72
2019-06-07T10:42:42.648Z,9.50
2019-06-07T10:45:12.301Z,9.55
2019-06-07T10:47:40.386Z,9.98
2019-06-07T10:50:08.560Z,9.23
2019-06-07T10:52:35.736Z,9.83
2019-06-07T10:55:06.553Z,9.13
2019-06-07T10:57:34.406Z,8.75
2019-06-07T11:00:03.337Z,9.23
2019-06-07T11:02:31.761Z,9.13
2019-06-07T11:04:59.482Z,9.70
2019-06-07T11:07:27.154Z,10.32
2019-06-07T11:10:06.101Z,9.08
2019-06-07T11:12:23.800Z,8.60
2019-06-07T11:14:51.908Z,9.18
2019-06-07T11:17:19.629Z,7.67
2019-06-07T11:19:47.063Z,7.72
2019-06-07T11:22:14.491Z,7.83
2019-06-07T11:24:42.383Z,8.40
2019-06-07T11:27:11.650Z,7.97
2019-06-07T11:29:39.821Z,8.23
2019-06-07T11:32:08.396Z,7.80
2019-06-07T11:34:35.952Z,8.08
2019-06-07T11:37:04.690Z,8.40
2019-06-07T11:39:33.082Z,8.73
2019-06-07T11:42:01.218Z,8.95
2019-06-07T11:44:29.015Z,8.08
2019-06-07T11:46:56.917Z,9.15
2019-06-07T11:49:24.286Z,8.35
2019-06-07T11:51:52.172Z,10.45
2019-06-07T11:54:20.616Z,8.60
2019-06-07T11:56:48.065Z,8.98
2019-06-07T11:59:15.725Z,8.23
2019-06-07T12:01:43.008Z,8.70
2019-06-07T12:04:11.564Z,9.65
2019-06-07T12:06:40.431Z,9.50
2019-06-07T12:09:08.622Z,9.90
2019-06-07T12:11:36.656Z,9.38
2019-06-07T12:14:03.961Z,8.18
2019-06-07T13:08:09.141Z,7.20
2019-06-07T13:10:36.955Z,6.92
2019-06-07T13:13:04.489Z,6.70
2019-06-07T13:15:31.703Z,5.95
2019-06-07T13:17:59.752Z,5.87
2019-06-07T13:20:28.801Z,6.78
2019-06-07T13:22:56.660Z,5.47
2019-06-07T13:25:41.095Z,4.97
2019-06-07T13:27:54.038Z,5.05
2019-06-07T13:30:23.535Z,4.65
2019-06-07T13:32:51.285Z,4.33
2019-06-07T13:35:21.543Z,4.97
2019-06-07T13:37:48.530Z,4.55
2019-06-07T13:40:16.451Z,4.30
2019-06-07T13:42:45.164Z,4.60
2019-06-07T13:45:13.922Z,4.20
2019-06-07T13:47:41.653Z,4.10
2019-06-07T13:50:10.853Z,3.50
2019-06-07T13:52:39.935Z,4.15
2019-06-07T13:55:07.816Z,4.62
2019-06-07T13:57:35.261Z,5.33
2019-06-07T14:00:10.492Z,5.03
2019-06-07T14:02:33.217Z,5.00
2019-06-07T14:05:01.206Z,4.92
2019-06-07T14:07:30.049Z,5.50
2019-06-07T14:09:57.654Z,4.67
2019-06-07T14:12:26.178Z,4.60
2019-06-07T14:14:53.925Z,4.62
2019-06-07T14:17:21.612Z,5.00
2019-06-07T14:19:49.131Z,5.30
2019-06-07T14:22:16.889Z,5.37
2019-06-07T14:24:44.604Z,6.00
2019-06-07T14:29:38.991Z,5.70
2019-06-07T14:32:07.260Z,5.17
2019-06-07T14:34:35.582Z,5.28
2019-06-07T14:37:03.313Z,5.08
2019-06-07T14:39:31.432Z,5.58
2019-06-07T14:42:08.946Z,6.28
2019-06-07T14:44:29.715Z,5.70
2019-06-07T14:46:57.620Z,6.22
2019-06-07T14:49:26.323Z,5.62
2019-06-07T14:51:54.596Z,5.55
2019-06-07T14:54:22.253Z,6.20
2019-06-07T14:56:49.798Z,6.87
2019-06-07T14:59:17.839Z,7.30
2019-06-07T15:01:45.278Z,6.47
2019-06-07T15:04:12.733Z,7.12
2019-06-07T15:06:40.517Z,6.37
2019-06-07T15:09:08.080Z,5.80
2019-06-07T15:11:36.314Z,5.65
2019-06-07T15:14:03.757Z,6.75
2019-06-07T15:16:32.004Z,6.17
2019-06-07T15:18:59.645Z,6.22
2019-06-07T15:21:26.951Z,6.33
2019-06-07T15:23:54.433Z,6.53
2019-06-07T15:26:21.908Z,5.62
2019-06-07T15:28:49.603Z,5.97
2019-06-07T15:31:16.737Z,6.92
2019-06-07T15:33:44.471Z,5.85
2019-06-07T15:36:11.814Z,5.95
2019-06-07T15:38:39.653Z,5.05
2019-06-07T15:41:08.482Z,6.75
2019-06-07T15:43:37.449Z,5.85
2019-06-07T15:46:06.740Z,5.28
2019-06-07T15:48:35.969Z,5.92
2019-06-07T15:51:03.493Z,5.25
2019-06-07T15:53:36.258Z,5.80
2019-06-07T15:56:00.122Z,5.17
2019-06-07T15:58:27.627Z,5.10
2019-06-07T16:00:55.371Z,5.70
2019-06-07T16:03:22.786Z,5.33
2019-06-07T16:05:50.422Z,5.72
2019-06-07T16:08:17.314Z,5.90
2019-06-07T16:14:47.217Z,6.17
2019-06-07T16:17:26.023Z,5.80
2019-06-07T16:21:55.965Z,5.90
2019-06-07T16:29:08.942Z,7.20
2019-06-07T16:34:59.795Z,5.87
2019-06-07T16:38:50.304Z,7.05
2019-06-07T16:41:17.217Z,6.50
2019-06-07T16:43:48.976Z,6.08
2019-06-07T16:48:04.858Z,6.62
